sensor_id;sensor_type;location;lat;lon;timestamp;P1;durP1;ratioP1;P2;durP2;ratioP2
65863;SDS011;52639;51.180;20.460;2023-04-03T00:03:30;2.80;;;2.10;;
65863;SDS011;52639;51.180;20.460;2023-04-03T00:07:33;2.03;;;1.60;;
65863;SDS011;52639;51.180;20.460;2023-04-03T00:11:37;4.95;;;3.67;;
65863;SDS011;52639;51.180;20.460;2023-04-03T00:15:41;9.13;;;4.18;;
65863;SDS011;52639;51.180;20.460;2023-04-03T00:19:44;5.75;;;2.88;;
65863;SDS011;52639;51.180;20.460;2023-04-03T00:23:47;6.75;;;3.15;;
65863;SDS011;52639;51.180;20.460;2023-04-03T00:27:51;4.95;;;2.92;;
65863;SDS011;52639;51.180;20.460;2023-04-03T00:31:54;5.45;;;2.35;;
65863;SDS011;52639;51.180;20.460;2023-04-03T00:35:57;8.45;;;3.05;;
65863;SDS011;52639;51.180;20.460;2023-04-03T00:40:00;5.85;;;3.33;;
65863;SDS011;52639;51.180;20.460;2023-04-03T00:48:45;4.80;;;3.42;;
65863;SDS011;52639;51.180;20.460;2023-04-03T00:52:49;5.35;;;3.53;;
65863;SDS011;52639;51.180;20.460;2023-04-03T00:56:54;2.33;;;1.85;;
65863;SDS011;52639;51.180;20.460;2023-04-03T01:01:02;5.72;;;2.78;;
65863;SDS011;52639;51.180;20.460;2023-04-03T01:05:08;7.63;;;3.60;;
65863;SDS011;52639;51.180;20.460;2023-04-03T01:09:12;6.80;;;3.80;;
65863;SDS011;52639;51.180;20.460;2023-04-03T01:13:20;4.55;;;3.20;;
65863;SDS011;52639;51.180;20.460;2023-04-03T01:17:29;5.80;;;3.35;;
65863;SDS011;52639;51.180;20.460;2023-04-03T01:21:41;7.65;;;3.50;;
65863;SDS011;52639;51.180;20.460;2023-04-03T01:26:01;7.18;;;3.60;;
65863;SDS011;52639;51.180;20.460;2023-04-03T01:30:05;7.03;;;3.25;;
65863;SDS011;52639;51.180;20.460;2023-04-03T01:34:11;6.22;;;3.85;;
65863;SDS011;52639;51.180;20.460;2023-04-03T01:38:14;7.88;;;3.58;;
65863;SDS011;52639;51.180;20.460;2023-04-03T01:42:16;7.70;;;3.40;;
65863;SDS011;52639;51.180;20.460;2023-04-03T01:46:19;4.88;;;3.08;;
65863;SDS011;52639;51.180;20.460;2023-04-03T01:50:24;6.32;;;2.88;;
65863;SDS011;52639;51.180;20.460;2023-04-03T01:54:29;7.80;;;3.28;;
65863;SDS011;52639;51.180;20.460;2023-04-03T01:58:32;7.15;;;3.08;;
65863;SDS011;52639;51.180;20.460;2023-04-03T02:02:35;4.13;;;2.78;;
65863;SDS011;52639;51.180;20.460;2023-04-03T02:06:39;5.57;;;2.30;;
65863;SDS011;52639;51.180;20.460;2023-04-03T02:10:42;2.45;;;1.77;;
65863;SDS011;52639;51.180;20.460;2023-04-03T02:14:45;5.13;;;2.67;;
65863;SDS011;52639;51.180;20.460;2023-04-03T02:18:48;6.28;;;2.30;;
65863;SDS011;52639;51.180;20.460;2023-04-03T02:22:53;3.33;;;2.25;;
65863;SDS011;52639;51.180;20.460;2023-04-03T02:26:56;3.67;;;2.10;;
65863;SDS011;52639;51.180;20.460;2023-04-03T02:30:59;4.65;;;2.47;;
65863;SDS011;52639;51.180;20.460;2023-04-03T02:35:02;5.85;;;3.08;;
65863;SDS011;52639;51.180;20.460;2023-04-03T02:39:06;10.77;;;3.28;;
65863;SDS011;52639;51.180;20.460;2023-04-03T02:43:09;5.25;;;2.55;;
65863;SDS011;52639;51.180;20.460;2023-04-03T02:47:12;5.38;;;2.17;;
65863;SDS011;52639;51.180;20.460;2023-04-03T02:51:15;4.78;;;2.38;;
65863;SDS011;52639;51.180;20.460;2023-04-03T02:55:20;7.20;;;2.67;;
65863;SDS011;52639;51.180;20.460;2023-04-03T02:59:22;7.32;;;2.83;;
65863;SDS011;52639;51.180;20.460;2023-04-03T03:03:25;5.40;;;2.72;;
65863;SDS011;52639;51.180;20.460;2023-04-03T03:07:28;6.43;;;3.33;;
65863;SDS011;52639;51.180;20.460;2023-04-03T03:11:32;6.20;;;3.20;;
65863;SDS011;52639;51.180;20.460;2023-04-03T03:15:35;4.03;;;2.97;;
65863;SDS011;52639;51.180;20.460;2023-04-03T03:19:38;6.32;;;3.13;;
65863;SDS011;52639;51.180;20.460;2023-04-03T03:23:41;7.05;;;3.20;;
65863;SDS011;52639;51.180;20.460;2023-04-03T03:27:46;12.05;;;2.80;;
65863;SDS011;52639;51.180;20.460;2023-04-03T03:31:48;5.25;;;2.72;;
65863;SDS011;52639;51.180;20.460;2023-04-03T03:35:51;5.03;;;2.85;;
65863;SDS011;52639;51.180;20.460;2023-04-03T03:39:54;13.07;;;3.67;;
65863;SDS011;52639;51.180;20.460;2023-04-03T03:43:59;3.03;;;1.92;;
65863;SDS011;52639;51.180;20.460;2023-04-03T03:48:02;4.90;;;2.17;;
65863;SDS011;52639;51.180;20.460;2023-04-03T03:52:11;8.55;;;3.03;;
65863;SDS011;52639;51.180;20.460;2023-04-03T03:56:14;8.30;;;2.80;;
65863;SDS011;52639;51.180;20.460;2023-04-03T04:00:18;8.10;;;2.92;;
65863;SDS011;52639;51.180;20.460;2023-04-03T04:04:21;7.63;;;3.35;;
65863;SDS011;52639;51.180;20.460;2023-04-03T04:08:24;4.28;;;2.60;;
65863;SDS011;52639;51.180;20.460;2023-04-03T04:12:27;7.78;;;3.33;;
65863;SDS011;52639;51.180;20.460;2023-04-03T04:16:31;9.05;;;3.33;;
65863;SDS011;52639;51.180;20.460;2023-04-03T04:20:34;4.85;;;2.90;;
65863;SDS011;52639;51.180;20.460;2023-04-03T04:24:37;11.15;;;3.53;;
65863;SDS011;52639;51.180;20.460;2023-04-03T04:28:40;4.13;;;2.47;;
65863;SDS011;52639;51.180;20.460;2023-04-03T04:32:44;5.65;;;2.70;;
65863;SDS011;52639;51.180;20.460;2023-04-03T04:36:47;4.25;;;2.45;;
65863;SDS011;52639;51.180;20.460;2023-04-03T04:40:50;8.82;;;3.63;;
65863;SDS011;52639;51.180;20.460;2023-04-03T04:44:53;9.35;;;3.17;;
65863;SDS011;52639;51.180;20.460;2023-04-03T04:48:58;5.25;;;3.28;;
65863;SDS011;52639;51.180;20.460;2023-04-03T04:53:03;7.10;;;3.08;;
65863;SDS011;52639;51.180;20.460;2023-04-03T04:57:06;4.85;;;2.92;;
65863;SDS011;52639;51.180;20.460;2023-04-03T05:01:09;8.27;;;3.00;;
65863;SDS011;52639;51.180;20.460;2023-04-03T05:05:15;5.88;;;3.00;;
65863;SDS011;52639;51.180;20.460;2023-04-03T05:09:18;4.50;;;2.35;;
65863;SDS011;52639;51.180;20.460;2023-04-03T05:13:21;6.45;;;3.10;;
65863;SDS011;52639;51.180;20.460;2023-04-03T05:17:24;7.78;;;2.33;;
65863;SDS011;52639;51.180;20.460;2023-04-03T05:21:29;6.38;;;3.35;;
65863;SDS011;52639;51.180;20.460;2023-04-03T05:25:33;4.18;;;2.47;;
65863;SDS011;52639;51.180;20.460;2023-04-03T05:29:36;10.73;;;7.60;;
65863;SDS011;52639;51.180;20.460;2023-04-03T05:33:39;5.82;;;3.17;;
65863;SDS011;52639;51.180;20.460;2023-04-03T05:37:43;5.88;;;3.13;;
65863;SDS011;52639;51.180;20.460;2023-04-03T05:41:46;5.18;;;2.28;;
65863;SDS011;52639;51.180;20.460;2023-04-03T05:45:49;6.13;;;2.78;;
65863;SDS011;52639;51.180;20.460;2023-04-03T05:49:52;1.65;;;1.55;;
65863;SDS011;52639;51.180;20.460;2023-04-03T05:54:03;2.38;;;1.88;;
65863;SDS011;52639;51.180;20.460;2023-04-03T05:58:10;5.78;;;3.25;;
65863;SDS011;52639;51.180;20.460;2023-04-03T06:02:14;3.72;;;2.05;;
65863;SDS011;52639;51.180;20.460;2023-04-03T06:06:18;7.50;;;2.60;;
65863;SDS011;52639;51.180;20.460;2023-04-03T06:10:24;2.38;;;2.00;;
65863;SDS011;52639;51.180;20.460;2023-04-03T06:14:27;4.38;;;1.90;;
65863;SDS011;52639;51.180;20.460;2023-04-03T06:18:30;6.10;;;2.38;;
65863;SDS011;52639;51.180;20.460;2023-04-03T06:22:32;4.60;;;2.28;;
65863;SDS011;52639;51.180;20.460;2023-04-03T06:26:37;4.78;;;2.72;;
65863;SDS011;52639;51.180;20.460;2023-04-03T06:30:40;6.50;;;2.72;;
65863;SDS011;52639;51.180;20.460;2023-04-03T06:34:43;4.05;;;2.33;;
65863;SDS011;52639;51.180;20.460;2023-04-03T06:38:47;4.25;;;1.88;;
65863;SDS011;52639;51.180;20.460;2023-04-03T06:42:51;3.80;;;2.22;;
65863;SDS011;52639;51.180;20.460;2023-04-03T06:46:54;5.43;;;2.58;;
65863;SDS011;52639;51.180;20.460;2023-04-03T06:50:58;5.00;;;2.08;;
65863;SDS011;52639;51.180;20.460;2023-04-03T06:55:00;2.53;;;1.35;;
65863;SDS011;52639;51.180;20.460;2023-04-03T06:59:06;5.97;;;2.30;;
65863;SDS011;52639;51.180;20.460;2023-04-03T07:03:08;3.60;;;2.03;;
65863;SDS011;52639;51.180;20.460;2023-04-03T07:07:11;2.95;;;2.10;;
65863;SDS011;52639;51.180;20.460;2023-04-03T07:11:15;4.60;;;2.25;;
65863;SDS011;52639;51.180;20.460;2023-04-03T07:15:20;5.75;;;2.30;;
65863;SDS011;52639;51.180;20.460;2023-04-03T07:19:22;3.70;;;1.50;;
65863;SDS011;52639;51.180;20.460;2023-04-03T07:23:28;3.63;;;2.40;;
65863;SDS011;52639;51.180;20.460;2023-04-03T07:27:31;2.20;;;1.55;;
65863;SDS011;52639;51.180;20.460;2023-04-03T07:31:36;6.75;;;2.05;;
65863;SDS011;52639;51.180;20.460;2023-04-03T07:35:42;7.63;;;3.40;;
65863;SDS011;52639;51.180;20.460;2023-04-03T07:39:46;4.13;;;2.20;;
65863;SDS011;52639;51.180;20.460;2023-04-03T07:43:50;2.70;;;1.90;;
65863;SDS011;52639;51.180;20.460;2023-04-03T07:47:55;2.55;;;1.70;;
65863;SDS011;52639;51.180;20.460;2023-04-03T07:51:58;9.18;;;3.42;;
65863;SDS011;52639;51.180;20.460;2023-04-03T07:56:01;5.35;;;2.85;;
65863;SDS011;52639;51.180;20.460;2023-04-03T08:00:05;7.60;;;3.05;;
65863;SDS011;52639;51.180;20.460;2023-04-03T08:04:11;1.60;;;1.50;;
65863;SDS011;52639;51.180;20.460;2023-04-03T08:08:14;2.97;;;1.55;;
65863;SDS011;52639;51.180;20.460;2023-04-03T08:12:19;1.40;;;1.20;;
65863;SDS011;52639;51.180;20.460;2023-04-03T08:16:22;7.80;;;3.05;;
65863;SDS011;52639;51.180;20.460;2023-04-03T08:20:29;7.00;;;2.80;;
65863;SDS011;52639;51.180;20.460;2023-04-03T08:24:32;6.03;;;3.05;;
65863;SDS011;52639;51.180;20.460;2023-04-03T08:28:35;6.10;;;3.25;;
65863;SDS011;52639;51.180;20.460;2023-04-03T08:32:38;7.22;;;2.63;;
65863;SDS011;52639;51.180;20.460;2023-04-03T08:36:44;7.15;;;3.38;;
65863;SDS011;52639;51.180;20.460;2023-04-03T08:40:47;4.50;;;2.08;;
65863;SDS011;52639;51.180;20.460;2023-04-03T08:44:52;5.47;;;2.42;;
65863;SDS011;52639;51.180;20.460;2023-04-03T08:49:01;6.15;;;2.42;;
65863;SDS011;52639;51.180;20.460;2023-04-03T08:53:06;5.18;;;3.00;;
65863;SDS011;52639;51.180;20.460;2023-04-03T08:57:16;4.68;;;2.25;;
65863;SDS011;52639;51.180;20.460;2023-04-03T09:01:23;3.83;;;1.88;;
65863;SDS011;52639;51.180;20.460;2023-04-03T09:05:32;6.03;;;2.90;;
65863;SDS011;52639;51.180;20.460;2023-04-03T09:09:45;2.97;;;1.77;;
65863;SDS011;52639;51.180;20.460;2023-04-03T09:13:52;3.78;;;2.03;;
65863;SDS011;52639;51.180;20.460;2023-04-03T09:18:00;2.75;;;2.00;;
65863;SDS011;52639;51.180;20.460;2023-04-03T09:22:11;5.38;;;2.13;;
65863;SDS011;52639;51.180;20.460;2023-04-03T09:26:21;4.13;;;2.30;;
65863;SDS011;52639;51.180;20.460;2023-04-03T09:30:28;6.65;;;2.50;;
65863;SDS011;52639;51.180;20.460;2023-04-03T09:34:32;3.78;;;1.80;;
65863;SDS011;52639;51.180;20.460;2023-04-03T09:38:37;9.35;;;2.90;;
65863;SDS011;52639;51.180;20.460;2023-04-03T09:42:41;4.55;;;2.47;;
65863;SDS011;52639;51.180;20.460;2023-04-03T09:46:45;6.50;;;2.50;;
65863;SDS011;52639;51.180;20.460;2023-04-03T09:50:53;3.95;;;2.15;;
65863;SDS011;52639;51.180;20.460;2023-04-03T09:55:06;8.10;;;2.42;;
65863;SDS011;52639;51.180;20.460;2023-04-03T09:59:14;5.45;;;2.15;;
65863;SDS011;52639;51.180;20.460;2023-04-03T10:03:23;6.63;;;3.20;;
65863;SDS011;52639;51.180;20.460;2023-04-03T10:07:32;6.55;;;2.67;;
65863;SDS011;52639;51.180;20.460;2023-04-03T10:11:37;3.70;;;2.00;;
65863;SDS011;52639;51.180;20.460;2023-04-03T10:15:42;4.68;;;2.45;;
65863;SDS011;52639;51.180;20.460;2023-04-03T10:19:47;6.15;;;2.50;;
65863;SDS011;52639;51.180;20.460;2023-04-03T10:23:54;5.53;;;2.58;;
65863;SDS011;52639;51.180;20.460;2023-04-03T10:28:03;5.32;;;2.65;;
65863;SDS011;52639;51.180;20.460;2023-04-03T10:32:18;3.10;;;2.10;;
65863;SDS011;52639;51.180;20.460;2023-04-03T10:36:36;6.22;;;2.17;;
65863;SDS011;52639;51.180;20.460;2023-04-03T10:40:47;1.92;;;1.45;;
65863;SDS011;52639;51.180;20.460;2023-04-03T10:45:01;4.57;;;1.95;;
65863;SDS011;52639;51.180;20.460;2023-04-03T10:49:17;3.50;;;2.17;;
65863;SDS011;52639;51.180;20.460;2023-04-03T10:53:31;4.97;;;2.00;;
65863;SDS011;52639;51.180;20.460;2023-04-03T10:57:41;3.42;;;1.65;;
65863;SDS011;52639;51.180;20.460;2023-04-03T11:01:45;6.70;;;2.30;;
65863;SDS011;52639;51.180;20.460;2023-04-03T11:05:52;13.38;;;4.20;;
65863;SDS011;52639;51.180;20.460;2023-04-03T11:09:59;4.82;;;2.72;;
65863;SDS011;52639;51.180;20.460;2023-04-03T11:14:09;2.58;;;1.88;;
65863;SDS011;52639;51.180;20.460;2023-04-03T11:18:17;4.00;;;1.70;;
65863;SDS011;52639;51.180;20.460;2023-04-03T11:22:27;4.10;;;2.05;;
65863;SDS011;52639;51.180;20.460;2023-04-03T11:26:35;3.15;;;2.22;;
65863;SDS011;52639;51.180;20.460;2023-04-03T11:30:44;3.53;;;1.85;;
65863;SDS011;52639;51.180;20.460;2023-04-03T11:34:50;6.35;;;2.45;;
65863;SDS011;52639;51.180;20.460;2023-04-03T11:38:59;8.52;;;2.90;;
65863;SDS011;52639;51.180;20.460;2023-04-03T11:43:17;4.82;;;2.28;;
65863;SDS011;52639;51.180;20.460;2023-04-03T11:51:48;5.03;;;1.95;;
65863;SDS011;52639;51.180;20.460;2023-04-03T11:55:57;6.75;;;2.80;;
65863;SDS011;52639;51.180;20.460;2023-04-03T12:04:39;7.65;;;3.08;;
65863;SDS011;52639;51.180;20.460;2023-04-03T12:09:24;4.68;;;2.40;;
65863;SDS011;52639;51.180;20.460;2023-04-03T12:13:34;6.28;;;2.97;;
65863;SDS011;52639;51.180;20.460;2023-04-03T12:17:37;13.23;;;5.13;;
65863;SDS011;52639;51.180;20.460;2023-04-03T12:26:20;6.28;;;2.97;;
65863;SDS011;52639;51.180;20.460;2023-04-03T12:30:27;3.45;;;2.28;;
65863;SDS011;52639;51.180;20.460;2023-04-03T12:34:39;5.90;;;2.50;;
65863;SDS011;52639;51.180;20.460;2023-04-03T12:43:39;2.40;;;2.13;;
65863;SDS011;52639;51.180;20.460;2023-04-03T12:47:52;5.50;;;2.50;;
65863;SDS011;52639;51.180;20.460;2023-04-03T12:51:56;4.97;;;2.33;;
65863;SDS011;52639;51.180;20.460;2023-04-03T13:00:32;5.00;;;2.00;;
65863;SDS011;52639;51.180;20.460;2023-04-03T13:04:41;2.90;;;2.10;;
65863;SDS011;52639;51.180;20.460;2023-04-03T13:08:48;3.17;;;2.13;;
65863;SDS011;52639;51.180;20.460;2023-04-03T13:12:53;9.52;;;2.60;;
65863;SDS011;52639;51.180;20.460;2023-04-03T13:16:58;3.08;;;2.05;;
65863;SDS011;52639;51.180;20.460;2023-04-03T13:21:04;4.38;;;2.22;;
65863;SDS011;52639;51.180;20.460;2023-04-03T13:25:10;3.72;;;1.63;;
65863;SDS011;52639;51.180;20.460;2023-04-03T13:29:19;8.15;;;2.35;;
65863;SDS011;52639;51.180;20.460;2023-04-03T13:33:26;6.03;;;2.83;;
65863;SDS011;52639;51.180;20.460;2023-04-03T13:37:33;2.95;;;1.98;;
65863;SDS011;52639;51.180;20.460;2023-04-03T13:41:38;3.05;;;2.08;;
65863;SDS011;52639;51.180;20.460;2023-04-03T13:45:53;7.18;;;2.38;;
65863;SDS011;52639;51.180;20.460;2023-04-03T13:50:01;3.28;;;1.90;;
65863;SDS011;52639;51.180;20.460;2023-04-03T13:54:16;5.10;;;2.75;;
65863;SDS011;52639;51.180;20.460;2023-04-03T13:58:23;4.05;;;2.10;;
65863;SDS011;52639;51.180;20.460;2023-04-03T14:02:29;1.83;;;1.42;;
65863;SDS011;52639;51.180;20.460;2023-04-03T14:06:34;6.45;;;2.38;;
65863;SDS011;52639;51.180;20.460;2023-04-03T14:10:39;6.50;;;2.92;;
65863;SDS011;52639;51.180;20.460;2023-04-03T14:14:42;3.72;;;2.03;;
65863;SDS011;52639;51.180;20.460;2023-04-03T14:18:49;5.75;;;2.15;;
65863;SDS011;52639;51.180;20.460;2023-04-03T14:22:53;5.95;;;2.30;;
65863;SDS011;52639;51.180;20.460;2023-04-03T14:26:57;7.38;;;3.63;;
65863;SDS011;52639;51.180;20.460;2023-04-03T14:31:01;5.88;;;2.40;;
65863;SDS011;52639;51.180;20.460;2023-04-03T14:35:04;3.47;;;2.00;;
65863;SDS011;52639;51.180;20.460;2023-04-03T14:39:07;4.97;;;3.20;;
65863;SDS011;52639;51.180;20.460;2023-04-03T14:43:15;2.05;;;1.70;;
65863;SDS011;52639;51.180;20.460;2023-04-03T14:47:19;5.22;;;2.33;;
65863;SDS011;52639;51.180;20.460;2023-04-03T14:51:24;3.00;;;1.90;;
65863;SDS011;52639;51.180;20.460;2023-04-03T14:55:27;1.63;;;1.50;;
65863;SDS011;52639;51.180;20.460;2023-04-03T14:59:32;8.75;;;2.80;;
65863;SDS011;52639;51.180;20.460;2023-04-03T15:03:35;6.20;;;2.95;;
65863;SDS011;52639;51.180;20.460;2023-04-03T15:07:39;4.78;;;1.85;;
65863;SDS011;52639;51.180;20.460;2023-04-03T15:11:43;7.15;;;2.72;;
65863;SDS011;52639;51.180;20.460;2023-04-03T15:15:48;5.00;;;2.53;;
65863;SDS011;52639;51.180;20.460;2023-04-03T15:19:52;9.18;;;3.92;;
65863;SDS011;52639;51.180;20.460;2023-04-03T15:23:55;3.22;;;1.90;;
65863;SDS011;52639;51.180;20.460;2023-04-03T15:27:58;5.03;;;2.53;;
65863;SDS011;52639;51.180;20.460;2023-04-03T15:32:04;2.13;;;1.75;;
65863;SDS011;52639;51.180;20.460;2023-04-03T15:36:07;4.63;;;2.60;;
65863;SDS011;52639;51.180;20.460;2023-04-03T15:40:11;5.20;;;2.40;;
65863;SDS011;52639;51.180;20.460;2023-04-03T15:44:14;7.57;;;3.40;;
65863;SDS011;52639;51.180;20.460;2023-04-03T15:48:21;7.47;;;3.35;;
65863;SDS011;52639;51.180;20.460;2023-04-03T15:52:24;5.90;;;2.60;;
65863;SDS011;52639;51.180;20.460;2023-04-03T15:56:27;46.55;;;14.52;;
65863;SDS011;52639;51.180;20.460;2023-04-03T16:00:31;65.15;;;18.92;;
65863;SDS011;52639;51.180;20.460;2023-04-03T16:04:36;9.30;;;4.47;;
65863;SDS011;52639;51.180;20.460;2023-04-03T16:08:39;22.50;;;7.80;;
65863;SDS011;52639;51.180;20.460;2023-04-03T16:12:44;13.85;;;5.45;;
65863;SDS011;52639;51.180;20.460;2023-04-03T16:16:49;10.48;;;5.03;;
65863;SDS011;52639;51.180;20.460;2023-04-03T16:20:54;7.15;;;3.53;;
65863;SDS011;52639;51.180;20.460;2023-04-03T16:24:57;13.68;;;6.20;;
65863;SDS011;52639;51.180;20.460;2023-04-03T16:29:00;7.40;;;2.72;;
65863;SDS011;52639;51.180;20.460;2023-04-03T16:33:04;7.50;;;3.30;;
65863;SDS011;52639;51.180;20.460;2023-04-03T16:37:09;3.50;;;2.10;;
65863;SDS011;52639;51.180;20.460;2023-04-03T16:41:12;16.27;;;5.68;;
65863;SDS011;52639;51.180;20.460;2023-04-03T16:45:15;14.60;;;6.10;;
65863;SDS011;52639;51.180;20.460;2023-04-03T16:49:19;15.43;;;6.00;;
65863;SDS011;52639;51.180;20.460;2023-04-03T16:53:24;17.02;;;6.43;;
65863;SDS011;52639;51.180;20.460;2023-04-03T16:57:28;24.38;;;10.10;;
65863;SDS011;52639;51.180;20.460;2023-04-03T17:01:31;10.30;;;5.88;;
65863;SDS011;52639;51.180;20.460;2023-04-03T17:05:34;17.67;;;6.82;;
65863;SDS011;52639;51.180;20.460;2023-04-03T17:09:39;13.13;;;5.10;;
65863;SDS011;52639;51.180;20.460;2023-04-03T17:13:42;12.75;;;5.55;;
65863;SDS011;52639;51.180;20.460;2023-04-03T17:17:46;52.58;;;19.05;;
65863;SDS011;52639;51.180;20.460;2023-04-03T17:21:50;40.25;;;15.23;;
65863;SDS011;52639;51.180;20.460;2023-04-03T17:25:55;16.98;;;6.78;;
65863;SDS011;52639;51.180;20.460;2023-04-03T17:29:59;13.80;;;5.78;;
65863;SDS011;52639;51.180;20.460;2023-04-03T17:34:03;15.52;;;6.55;;
65863;SDS011;52639;51.180;20.460;2023-04-03T17:38:14;13.13;;;5.53;;
65863;SDS011;52639;51.180;20.460;2023-04-03T17:42:20;12.90;;;5.22;;
65863;SDS011;52639;51.180;20.460;2023-04-03T17:46:25;14.75;;;6.05;;
65863;SDS011;52639;51.180;20.460;2023-04-03T17:50:31;19.10;;;8.43;;
65863;SDS011;52639;51.180;20.460;2023-04-03T17:54:35;35.70;;;14.65;;
65863;SDS011;52639;51.180;20.460;2023-04-03T17:58:44;10.60;;;5.68;;
65863;SDS011;52639;51.180;20.460;2023-04-03T18:02:51;9.43;;;4.55;;
65863;SDS011;52639;51.180;20.460;2023-04-03T18:06:56;52.08;;;19.27;;
65863;SDS011;52639;51.180;20.460;2023-04-03T18:11:00;6.65;;;3.15;;
65863;SDS011;52639;51.180;20.460;2023-04-03T18:15:11;8.80;;;4.32;;
65863;SDS011;52639;51.180;20.460;2023-04-03T18:19:16;10.98;;;4.53;;
65863;SDS011;52639;51.180;20.460;2023-04-03T18:23:23;10.18;;;3.83;;
65863;SDS011;52639;51.180;20.460;2023-04-03T18:27:30;7.78;;;3.88;;
65863;SDS011;52639;51.180;20.460;2023-04-03T18:31:36;12.30;;;4.43;;
65863;SDS011;52639;51.180;20.460;2023-04-03T18:35:44;10.55;;;5.18;;
65863;SDS011;52639;51.180;20.460;2023-04-03T18:39:48;8.60;;;4.35;;
65863;SDS011;52639;51.180;20.460;2023-04-03T18:43:54;11.35;;;4.72;;
65863;SDS011;52639;51.180;20.460;2023-04-03T18:48:04;15.98;;;5.90;;
65863;SDS011;52639;51.180;20.460;2023-04-03T18:52:08;11.95;;;5.72;;
65863;SDS011;52639;51.180;20.460;2023-04-03T18:56:14;14.90;;;6.50;;
65863;SDS011;52639;51.180;20.460;2023-04-03T19:00:18;14.73;;;6.70;;
65863;SDS011;52639;51.180;20.460;2023-04-03T19:04:24;51.55;;;18.02;;
65863;SDS011;52639;51.180;20.460;2023-04-03T19:08:30;9.95;;;4.28;;
65863;SDS011;52639;51.180;20.460;2023-04-03T19:12:36;24.15;;;8.88;;
65863;SDS011;52639;51.180;20.460;2023-04-03T19:16:42;14.60;;;6.65;;
65863;SDS011;52639;51.180;20.460;2023-04-03T19:20:50;24.80;;;9.70;;
65863;SDS011;52639;51.180;20.460;2023-04-03T19:24:54;22.67;;;8.85;;
65863;SDS011;52639;51.180;20.460;2023-04-03T19:28:59;22.10;;;7.55;;
65863;SDS011;52639;51.180;20.460;2023-04-03T19:33:12;28.10;;;11.75;;
65863;SDS011;52639;51.180;20.460;2023-04-03T19:37:18;9.43;;;5.07;;
65863;SDS011;52639;51.180;20.460;2023-04-03T19:41:26;13.90;;;6.47;;
65863;SDS011;52639;51.180;20.460;2023-04-03T19:45:33;10.32;;;4.95;;
65863;SDS011;52639;51.180;20.460;2023-04-03T19:49:41;10.05;;;5.13;;
65863;SDS011;52639;51.180;20.460;2023-04-03T19:53:48;11.15;;;4.93;;
65863;SDS011;52639;51.180;20.460;2023-04-03T19:57:53;14.70;;;4.85;;
65863;SDS011;52639;51.180;20.460;2023-04-03T20:01:57;15.85;;;6.07;;
65863;SDS011;52639;51.180;20.460;2023-04-03T20:06:03;12.98;;;5.65;;
65863;SDS011;52639;51.180;20.460;2023-04-03T20:10:11;12.10;;;6.00;;
65863;SDS011;52639;51.180;20.460;2023-04-03T20:14:15;19.73;;;8.90;;
65863;SDS011;52639;51.180;20.460;2023-04-03T20:18:20;25.00;;;11.55;;
65863;SDS011;52639;51.180;20.460;2023-04-03T20:22:25;24.45;;;11.40;;
65863;SDS011;52639;51.180;20.460;2023-04-03T20:26:30;24.35;;;9.73;;
65863;SDS011;52639;51.180;20.460;2023-04-03T20:30:38;58.28;;;18.90;;
65863;SDS011;52639;51.180;20.460;2023-04-03T20:34:42;128.40;;;37.40;;
65863;SDS011;52639;51.180;20.460;2023-04-03T20:38:46;46.25;;;17.73;;
65863;SDS011;52639;51.180;20.460;2023-04-03T20:42:52;49.28;;;19.63;;
65863;SDS011;52639;51.180;20.460;2023-04-03T20:46:55;41.13;;;15.77;;
65863;SDS011;52639;51.180;20.460;2023-04-03T20:50:58;43.38;;;16.88;;
65863;SDS011;52639;51.180;20.460;2023-04-03T20:55:10;46.65;;;18.52;;
65863;SDS011;52639;51.180;20.460;2023-04-03T20:59:14;58.72;;;21.67;;
65863;SDS011;52639;51.180;20.460;2023-04-03T21:03:17;57.70;;;21.73;;
65863;SDS011;52639;51.180;20.460;2023-04-03T21:20:45;67.90;;;21.95;;
65863;SDS011;52639;51.180;20.460;2023-04-03T21:24:47;72.05;;;26.08;;
65863;SDS011;52639;51.180;20.460;2023-04-03T21:28:50;72.28;;;24.50;;
65863;SDS011;52639;51.180;20.460;2023-04-03T21:32:53;73.03;;;26.52;;
65863;SDS011;52639;51.180;20.460;2023-04-03T21:37:00;87.03;;;28.80;;
65863;SDS011;52639;51.180;20.460;2023-04-03T21:41:04;69.45;;;25.83;;
65863;SDS011;52639;51.180;20.460;2023-04-03T21:45:07;72.07;;;25.20;;
65863;SDS011;52639;51.180;20.460;2023-04-03T21:49:16;54.90;;;19.55;;
65863;SDS011;52639;51.180;20.460;2023-04-03T21:53:20;65.93;;;22.85;;
65863;SDS011;52639;51.180;20.460;2023-04-03T21:57:24;77.50;;;26.48;;
65863;SDS011;52639;51.180;20.460;2023-04-03T22:01:27;61.40;;;22.48;;
65863;SDS011;52639;51.180;20.460;2023-04-03T22:05:30;48.70;;;19.20;;
65863;SDS011;52639;51.180;20.460;2023-04-03T22:09:34;29.15;;;12.60;;
65863;SDS011;52639;51.180;20.460;2023-04-03T22:13:37;35.92;;;14.82;;
65863;SDS011;52639;51.180;20.460;2023-04-03T22:17:40;40.05;;;15.90;;
65863;SDS011;52639;51.180;20.460;2023-04-03T22:21:44;44.58;;;15.48;;
65863;SDS011;52639;51.180;20.460;2023-04-03T22:25:57;38.72;;;15.02;;
65863;SDS011;52639;51.180;20.460;2023-04-03T22:30:01;25.98;;;11.25;;
65863;SDS011;52639;51.180;20.460;2023-04-03T22:34:04;23.08;;;10.70;;
65863;SDS011;52639;51.180;20.460;2023-04-03T22:38:07;23.60;;;9.65;;
65863;SDS011;52639;51.180;20.460;2023-04-03T22:42:11;23.75;;;9.73;;
65863;SDS011;52639;51.180;20.460;2023-04-03T22:46:14;24.63;;;8.65;;
65863;SDS011;52639;51.180;20.460;2023-04-03T22:50:17;25.00;;;9.10;;
65863;SDS011;52639;51.180;20.460;2023-04-03T22:54:20;26.17;;;9.63;;
65863;SDS011;52639;51.180;20.460;2023-04-03T22:58:24;30.23;;;11.57;;
65863;SDS011;52639;51.180;20.460;2023-04-03T23:02:28;24.42;;;11.48;;
65863;SDS011;52639;51.180;20.460;2023-04-03T23:06:33;27.05;;;10.80;;
65863;SDS011;52639;51.180;20.460;2023-04-03T23:10:36;23.67;;;10.88;;
65863;SDS011;52639;51.180;20.460;2023-04-03T23:14:43;17.83;;;8.38;;
65863;SDS011;52639;51.180;20.460;2023-04-03T23:18:46;15.68;;;7.70;;
65863;SDS011;52639;51.180;20.460;2023-04-03T23:22:49;19.42;;;8.50;;
65863;SDS011;52639;51.180;20.460;2023-04-03T23:26:52;22.55;;;5.95;;
65863;SDS011;52639;51.180;20.460;2023-04-03T23:30:57;15.35;;;7.28;;
65863;SDS011;52639;51.180;20.460;2023-04-03T23:35:01;7.60;;;4.00;;
65863;SDS011;52639;51.180;20.460;2023-04-03T23:39:04;6.90;;;3.95;;
65863;SDS011;52639;51.180;20.460;2023-04-03T23:43:06;8.80;;;4.68;;
65863;SDS011;52639;51.180;20.460;2023-04-03T23:47:10;8.25;;;4.22;;
65863;SDS011;52639;51.180;20.460;2023-04-03T23:51:13;9.25;;;4.10;;
65863;SDS011;52639;51.180;20.460;2023-04-03T23:55:16;16.20;;;4.82;;
65863;SDS011;52639;51.180;20.460;2023-04-03T23:59:19;7.55;;;4.00;;
